tititudorancea.com
Station Historical Data
Daily Summary for May 28, 2018 Units:  Metric    English   Both
« Previous Day
Next Day »
Daily Weekly Monthly Yearly Custom
  High: Low: Average:
Temperature: -17.8 °C 11.6 °C 14.3 °C
Dew Point: -17.8 °C 7.9 °C 10.2 °C
Humidity: Humidity % 66 % 77 %
Wind Speed: 0 km/h 0 km/h 13.2 km/h
Wind Gust: 0 km/h - -
Wind:- - East
Pressure: 0 hPa 1011.7 hPa -
Precipitation: 8.38 mm    
Historical Graphs
 
 
Ararat weather Find more about Weather in Ararat, AU


 



 


Tabular Data for May 28, 2018
Time Temperature Dew Point Pressure Wind Wind Speed Wind Gust Humidity Rainfall Rate (Hourly)
-17.8 °C -17.8 °C 0 hPa Calm     Humidity % 0 mm
00:01 12.6 °C 10.4 °C 1019.5 hPa Calm     87 % 0.25 mm
00:06 12.5 °C 10.4 °C 1019.5 hPa NNE 1.9 km/h 1.9 km/h 87 % 0.25 mm
00:11 12.4 °C 10.3 °C 1019.2 hPa Calm     87 % 0.25 mm
00:16 12.3 °C 10.2 °C 1019.2 hPa Calm     87 % 0.25 mm
00:21 12.2 °C 10.1 °C 1019.2 hPa Calm     87 % 0.25 mm
00:26 12.2 °C 10.2 °C 1019.2 hPa Calm     88 % 0.25 mm
00:31 12.1 °C 10.1 °C 1018.8 hPa Calm     88 % 0.25 mm
00:33 12.1 °C 10.1 °C 1018.8 hPa Calm     88 % 0 mm
00:38 11.9 °C 9.9 °C 1018.8 hPa NNE 3.2 km/h 3.2 km/h 88 % 0 mm
00:43 11.8 °C 10 °C 1018.8 hPa NNE 3.7 km/h 3.7 km/h 89 % 0 mm
00:48 11.7 °C 9.9 °C 1018.8 hPa NNE 3.7 km/h 3.7 km/h 89 % 0 mm
00:53 11.7 °C 9.9 °C 1018.8 hPa NNE 3.7 km/h 3.7 km/h 89 % 0 mm
00:58 11.7 °C 9.9 °C 1018.8 hPa Calm     89 % 0 mm
01:03 11.7 °C 9.9 °C 1018.5 hPa Calm     89 % 0 mm
01:08 11.7 °C 9.9 °C 1018.5 hPa NNE 1.9 km/h 1.9 km/h 89 % 0 mm
01:13 11.7 °C 10.4 °C 1018.5 hPa NNE 1.9 km/h 1.9 km/h 92 % 0 mm
01:18 11.8 °C 10 °C 1018.5 hPa NNE 3.7 km/h 3.7 km/h 89 % 0 mm
01:23 11.8 °C 10 °C 1018.5 hPa Calm     89 % 0 mm
01:28 11.8 °C 9.9 °C 1018.5 hPa Calm     88 % 0 mm
01:33 11.8 °C 9.9 °C 1018.5 hPa NNE 4.8 km/h 4.8 km/h 88 % 0 mm
01:38 12 °C 10.1 °C 1018.5 hPa NNE 9.3 km/h 9.3 km/h 88 % 0 mm
01:43 12.5 °C 10.2 °C 1018.5 hPa NNE 9.3 km/h 9.3 km/h 86 % 0 mm
01:48 13.1 °C 10.1 °C 1018.5 hPa NNE 9.3 km/h 9.3 km/h 82 % 0 mm
01:53 13.5 °C 10.1 °C 1018.5 hPa NNE 6.4 km/h 6.4 km/h 80 % 0 mm
01:58 13.8 °C 9.9 °C 1018.5 hPa NNE 8 km/h 8 km/h 77 % 0 mm
02:03 13.9 °C 9.8 °C 1018.5 hPa NNE 7.4 km/h 7.4 km/h 76 % 0 mm
02:08 14.1 °C 9.7 °C 1018.5 hPa NNE 7.4 km/h 7.4 km/h 75 % 0 mm
02:13 14.1 °C 9.5 °C 1018.5 hPa NNE 9.3 km/h 9.3 km/h 74 % 0 mm
02:18 14.1 °C 9.5 °C 1018.5 hPa NNE 5.6 km/h 5.6 km/h 74 % 0 mm
02:23 13.9 °C 9.4 °C 1018.2 hPa NNE 5.6 km/h 5.6 km/h 74 % 0 mm
02:28 13.9 °C 9.3 °C 1018.2 hPa NNE 8 km/h 8 km/h 74 % 0 mm
02:33 13.9 °C 9.1 °C 1018.5 hPa NNE 13 km/h 13 km/h 73 % 0 mm
02:38 13.9 °C 9.2 °C 1018.5 hPa NNE 5.6 km/h 5.6 km/h 73 % 0 mm
02:43 13.9 °C 9.2 °C 1018.5 hPa NNE 7.4 km/h 7.4 km/h 73 % 0 mm
02:48 13.8 °C 9.1 °C 1018.2 hPa NNE 9.3 km/h 9.3 km/h 73 % 0 mm
02:53 13.8 °C 9 °C 1018.2 hPa NNE 7.4 km/h 7.4 km/h 73 % 0 mm
02:58 13.7 °C 9.1 °C 1018.2 hPa NNE 7.4 km/h 7.4 km/h 74 % 0 mm
03:03 13.6 °C 9.2 °C 1018.2 hPa NNE 5.6 km/h 5.6 km/h 75 % 0 mm
03:08 13.5 °C 9.2 °C 1018.2 hPa NNE 5.6 km/h 5.6 km/h 75 % 0 mm
03:13 13.6 °C 9.2 °C 1018.2 hPa NNE 5.6 km/h 5.6 km/h 75 % 0 mm
03:18 13.6 °C 9 °C 1017.8 hPa NNE 13 km/h 13 km/h 74 % 0 mm
03:23 13.6 °C 8.8 °C 1017.8 hPa NNE 13 km/h 13 km/h 73 % 0 mm
03:28 13.8 °C 8.8 °C 1017.8 hPa NNE 11.3 km/h 11.3 km/h 72 % 0 mm
03:33 13.8 °C 8.9 °C 1017.8 hPa NNE 5.6 km/h 5.6 km/h 72 % 0 mm
03:38 13.9 °C 8.9 °C 1017.8 hPa NNE 9.3 km/h 9.3 km/h 72 % 0 mm
03:43 13.9 °C 8.7 °C 1017.5 hPa NNE 14.8 km/h 14.8 km/h 71 % 0 mm
03:48 13.9 °C 8.7 °C 1017.5 hPa NNE 7.4 km/h 7.4 km/h 71 % 0 mm
03:53 13.9 °C 8.7 °C 1017.5 hPa NNE 11.1 km/h 11.1 km/h 71 % 0 mm
03:58 13.9 °C 8.7 °C 1017.5 hPa NNE 11.1 km/h 11.1 km/h 71 % 0 mm
04:03 13.9 °C 8.6 °C 1017.5 hPa NNE 13 km/h 13 km/h 70 % 0 mm
04:08 14 °C 8.4 °C 1017.5 hPa NNE 9.7 km/h 9.7 km/h 69 % 0 mm
04:13 14.1 °C 8.4 °C 1017.5 hPa NNE 16.7 km/h 16.7 km/h 69 % 0 mm
04:18 14.2 °C 8.3 °C 1017.5 hPa NNE 14.8 km/h 14.8 km/h 68 % 0 mm
04:23 14.2 °C 8.2 °C 1017.5 hPa NNE 24.1 km/h 24.1 km/h 67 % 0 mm
04:28 14.3 °C 8.2 °C 1017.2 hPa North 18.5 km/h 18.5 km/h 67 % 0 mm
04:33 14.2 °C 8.2 °C 1017.5 hPa North 18.5 km/h 18.5 km/h 67 % 0 mm
04:38 14.2 °C 8.2 °C 1017.2 hPa NNE 18.5 km/h 18.5 km/h 67 % 0 mm
04:43 14.1 °C 8.1 °C 1017.2 hPa NNE 14.8 km/h 14.8 km/h 67 % 0 mm
04:48 14 °C 7.9 °C 1017.2 hPa NNE 22.2 km/h 22.2 km/h 67 % 0 mm
04:53 14 °C 7.9 °C 1017.2 hPa NNE 18.5 km/h 18.5 km/h 67 % 0 mm
04:58 13.9 °C 7.9 °C 1017.2 hPa North 24.1 km/h 24.1 km/h 67 % 0 mm
05:03 14 °C 7.9 °C 1017.2 hPa North 14.8 km/h 14.8 km/h 67 % 0 mm
05:08 13.9 °C 7.9 °C 1017.5 hPa North 18.5 km/h 18.5 km/h 67 % 0 mm
05:13 13.9 °C 8.1 °C 1017.5 hPa North 20.4 km/h 20.4 km/h 68 % 0 mm
05:18 13.8 °C 7.9 °C 1017.5 hPa North 22.2 km/h 22.2 km/h 68 % 0 mm
05:23 13.7 °C 7.9 °C 1017.5 hPa North 11.1 km/h 11.1 km/h 68 % 0 mm
05:28 13.7 °C 7.9 °C 1017.5 hPa North 16.7 km/h 16.7 km/h 68 % 0 mm
05:33 13.7 °C 7.9 °C 1017.5 hPa North 5.6 km/h 5.6 km/h 68 % 0 mm
05:38 13.7 °C 7.9 °C 1017.5 hPa North 9.3 km/h 9.3 km/h 68 % 0 mm
05:43 13.7 °C 7.9 °C 1017.5 hPa North 14.8 km/h 14.8 km/h 68 % 0 mm
05:48 13.6 °C 8 °C 1017.8 hPa North 16.7 km/h 16.7 km/h 69 % 0 mm
05:53 13.5 °C 8.1 °C 1017.8 hPa North 8 km/h 8 km/h 70 % 0 mm
05:58 13.3 °C 8.2 °C 1017.8 hPa North 13 km/h 13 km/h 71 % 0 mm
06:03 13.2 °C 8.3 °C 1017.8 hPa North 13 km/h 13 km/h 72 % 0 mm
06:08 13.1 °C 8.4 °C 1017.8 hPa North 18.5 km/h 18.5 km/h 73 % 0.25 mm
06:13 12.9 °C 8.6 °C 1017.8 hPa North 13 km/h 13 km/h 75 % 0.25 mm
06:18 12.6 °C 8.7 °C 1017.8 hPa North 16.7 km/h 16.7 km/h 77 % 0.25 mm
06:23 12.4 °C 9.1 °C 1017.8 hPa North 13 km/h 13 km/h 80 % 0.51 mm
06:28 12.2 °C 9.2 °C 1017.8 hPa North 14.8 km/h 14.8 km/h 82 % 0.51 mm
06:33 12 °C 9.2 °C 1017.8 hPa North 6.4 km/h 6.4 km/h 83 % 0.51 mm
06:38 11.8 °C 9.2 °C 1017.8 hPa North 7.4 km/h 7.4 km/h 84 % 0.51 mm
06:43 11.8 °C 9.3 °C 1017.8 hPa North 6.4 km/h 6.4 km/h 85 % 0.51 mm
06:48 11.7 °C 9.2 °C 1017.8 hPa North 9.3 km/h 9.3 km/h 85 % 0.51 mm
06:53 11.6 °C 9.3 °C 1017.8 hPa North 13 km/h 13 km/h 86 % 0.51 mm
06:58 11.7 °C 9.2 °C 1017.8 hPa North 7.4 km/h 7.4 km/h 85 % 0.51 mm
07:03 11.7 °C 9.3 °C 1017.8 hPa North 3.7 km/h 3.7 km/h 85 % 0.51 mm
07:08 11.7 °C 9.3 °C 1017.8 hPa North 5.6 km/h 5.6 km/h 85 % 0.51 mm
07:12 11.7 °C 9.2 °C 1017.8 hPa North 3.7 km/h 3.7 km/h 85 % 0.51 mm
07:14 11.7 °C 9.4 °C 1017.8 hPa North 6.4 km/h 6.4 km/h 86 % 0.51 mm
07:19 11.6 °C 9.3 °C 1017.5 hPa North 3.7 km/h 3.7 km/h 86 % 0.51 mm
07:24 11.6 °C 9.3 °C 1017.8 hPa North 6.4 km/h 6.4 km/h 86 % 0.25 mm
07:29 11.7 °C 9.4 °C 1017.8 hPa North 7.4 km/h 7.4 km/h 86 % 0 mm
07:34 11.7 °C 9.4 °C 1017.8 hPa North 5.6 km/h 5.6 km/h 86 % 0 mm
07:39 11.7 °C 9.3 °C 1017.8 hPa North 7.4 km/h 7.4 km/h 85 % 0 mm
07:44 11.8 °C 9.4 °C 1018.2 hPa North 8 km/h 8 km/h 85 % 0 mm
07:49 12.1 °C 9.4 °C 1018.2 hPa North 7.4 km/h 7.4 km/h 84 % 0 mm
07:54 12.2 °C 9.4 °C 1018.2 hPa North 11.1 km/h 11.1 km/h 83 % 0 mm
07:59 12.3 °C 9.3 °C 1017.8 hPa North 18.5 km/h 18.5 km/h 82 % 0 mm
08:04 12.4 °C 9.4 °C 1018.2 hPa North 9.3 km/h 9.3 km/h 82 % 0 mm
08:09 12.4 °C 9.4 °C 1018.2 hPa North 9.3 km/h 9.3 km/h 82 % 0 mm
08:14 12.4 °C 9.4 °C 1018.2 hPa North 11.1 km/h 11.1 km/h 82 % 0 mm
08:19 12.5 °C 9.5 °C 1018.5 hPa North 13 km/h 13 km/h 82 % 0 mm
08:24 12.6 °C 9.6 °C 1018.5 hPa North 13 km/h 13 km/h 82 % 0 mm
08:29 12.6 °C 9.4 °C 1018.5 hPa North 13 km/h 13 km/h 81 % 0 mm
08:34 12.7 °C 9.5 °C 1018.5 hPa North 11.1 km/h 11.1 km/h 81 % 0 mm
08:39 12.7 °C 9.6 °C 1018.5 hPa North 18.5 km/h 18.5 km/h 81 % 0 mm
08:44 12.9 °C 9.5 °C 1018.5 hPa North 19.3 km/h 19.3 km/h 80 % 0 mm
08:49 12.8 °C 9.7 °C 1018.5 hPa North 18.5 km/h 18.5 km/h 81 % 0 mm
08:54 12.7 °C 9.7 °C 1018.5 hPa North 12.9 km/h 12.9 km/h 82 % 0 mm
08:59 12.7 °C 9.8 °C 1018.5 hPa North 9.3 km/h 9.3 km/h 83 % 0 mm
09:04 12.7 °C 9.8 °C 1018.5 hPa North 13 km/h 13 km/h 83 % 0 mm
09:09 12.8 °C 10.2 °C 1018.5 hPa North 14.5 km/h 14.5 km/h 84 % 0 mm
09:14 12.9 °C 10.1 °C 1018.5 hPa North 9.3 km/h 11.3 km/h 83 % 0 mm
09:19 13 °C 10.2 °C 1018.5 hPa North 11.1 km/h 11.1 km/h 83 % 0 mm
09:24 13.1 °C 10.1 °C 1018.5 hPa North 13 km/h 13 km/h 82 % 0 mm
09:29 13.2 °C 10.2 °C 1018.5 hPa NNE 16.7 km/h 16.7 km/h 82 % 0 mm
09:34 13.3 °C 10.3 °C 1018.2 hPa NNE 13 km/h 13 km/h 82 % 0 mm
09:39 13.4 °C 10.2 °C 1018.2 hPa NNE 9.3 km/h 9.3 km/h 81 % 0 mm
09:45 13.6 °C 10.3 °C 1018.2 hPa NNE 9.3 km/h 9.3 km/h 81 % 0 mm
09:50 13.6 °C 10.4 °C 1018.2 hPa NNE 11.1 km/h 11.1 km/h 81 % 0 mm
09:55 13.6 °C 10.4 °C 1018.2 hPa NNE 16.7 km/h 16.7 km/h 81 % 0 mm
10:00 13.7 °C 10.4 °C 1018.2 hPa NNE 13 km/h 13 km/h 81 % 0 mm
10:05 13.9 °C 10.7 °C 1018.2 hPa NNE 16.7 km/h 16.7 km/h 81 % 0 mm
10:10 14.2 °C 10.6 °C 1018.2 hPa NNE 13 km/h 13 km/h 79 % 0 mm
10:15 14.2 °C 10.4 °C 1018.2 hPa NNE 9.7 km/h 19.3 km/h 78 % 0 mm
10:20 14.3 °C 10.6 °C 1018.2 hPa NNE 11.1 km/h 11.1 km/h 78 % 0 mm
10:25 14.4 °C 10.3 °C 1018.2 hPa NNE 22.2 km/h 22.2 km/h 76 % 0 mm
10:30 14.5 °C 10.1 °C 1018.2 hPa NNE 18.5 km/h 18.5 km/h 75 % 0 mm
10:35 14.5 °C 9.9 °C 1018.2 hPa NNE 11.3 km/h 11.3 km/h 74 % 0 mm
10:40 14.8 °C 10.2 °C 1018.2 hPa NNE 24.1 km/h 24.1 km/h 74 % 0 mm
10:45 15.1 °C 10.2 °C 1018.2 hPa North 16.1 km/h 27.4 km/h 73 % 0 mm
10:50 15.1 °C 10.5 °C 1018.2 hPa North 16.1 km/h 16.1 km/h 74 % 0 mm
10:55 15 °C 10.2 °C 1018.2 hPa North 11.3 km/h 22.5 km/h 73 % 0 mm
11:00 14.7 °C 9.9 °C 1018.2 hPa North 22.2 km/h 22.2 km/h 73 % 0 mm
11:05 14.5 °C 9.9 °C 1018.2 hPa North 14.5 km/h 25.7 km/h 74 % 0 mm
11:10 14.2 °C 9.9 °C 1017.8 hPa North 9.7 km/h 32.2 km/h 75 % 0 mm
11:15 14.1 °C 9.7 °C 1017.8 hPa NNW 18.5 km/h 18.5 km/h 75 % 0 mm
11:20 13.9 °C 10 °C 1017.5 hPa North 16.7 km/h 16.7 km/h 77 % 0 mm
11:25 13.9 °C 9.9 °C 1017.5 hPa North 11.3 km/h 22.5 km/h 77 % 0 mm
11:30 13.9 °C 10.1 °C 1017.5 hPa North 9.7 km/h 22.5 km/h 78 % 0 mm
11:35 14 °C 10.2 °C 1017.5 hPa North 9.7 km/h 19.3 km/h 78 % 0 mm
11:40 14.1 °C 10.3 °C 1017.2 hPa North 12.9 km/h 19.3 km/h 78 % 0 mm
11:45 14.2 °C 10.2 °C 1017.2 hPa North 11.3 km/h 20.9 km/h 77 % 0 mm
11:50 14.3 °C 10.3 °C 1016.8 hPa NNE 14.8 km/h 14.8 km/h 77 % 0 mm
11:55 14.3 °C 10.3 °C 1016.8 hPa NNE 16.7 km/h 16.7 km/h 77 % 0 mm
12:00 14.5 °C 10.3 °C 1016.5 hPa NNE 22.5 km/h 22.5 km/h 76 % 0 mm
12:05 14.8 °C 10.7 °C 1016.5 hPa NNE 22.2 km/h 22.2 km/h 76 % 0 mm
12:10 15.3 °C 10.8 °C 1016.5 hPa NNE 11.3 km/h 22.5 km/h 75 % 0 mm
12:15 15.5 °C 10.9 °C 1016.5 hPa North 14.8 km/h 14.8 km/h 74 % 0 mm
12:20 15.8 °C 11.2 °C 1016.1 hPa North 11.3 km/h 16.1 km/h 74 % 0 mm
12:25 15.9 °C 11.1 °C 1015.8 hPa NE 16.7 km/h 16.7 km/h 73 % 0 mm
12:30 16 °C 11.4 °C 1015.8 hPa NE 18.5 km/h 18.5 km/h 74 % 0 mm
12:35 16.2 °C 11.6 °C 1015.8 hPa NE 11.1 km/h 11.1 km/h 74 % 0 mm
12:40 16.6 °C 11.3 °C 1015.8 hPa NNE 16.1 km/h 27.4 km/h 71 % 0 mm
12:45 16.7 °C 11.2 °C 1015.8 hPa NNE 9.7 km/h 25.7 km/h 70 % 0 mm
12:50 16.9 °C 11.2 °C 1015.5 hPa NNE 27.8 km/h 27.8 km/h 69 % 0 mm
12:55 16.8 °C 10.9 °C 1015.5 hPa North 27.8 km/h 27.8 km/h 68 % 0 mm
13:00 16.7 °C 10.8 °C 1015.5 hPa NNE 29.6 km/h 29.6 km/h 68 % 0 mm
13:05 16.8 °C 11.3 °C 1015.5 hPa North 18.5 km/h 18.5 km/h 70 % 0 mm
13:10 16.8 °C 11.1 °C 1015.5 hPa North 11.3 km/h 33.8 km/h 69 % 0 mm
13:15 17 °C 11.3 °C 1015.5 hPa NNE 20.9 km/h 20.9 km/h 69 % 0 mm
13:20 16.9 °C 10.8 °C 1015.5 hPa NNE 25.9 km/h 25.9 km/h 67 % 0 mm
13:25 16.9 °C 10.7 °C 1015.5 hPa North 14.5 km/h 24.1 km/h 67 % 0 mm
13:30 16.9 °C 11 °C 1015.1 hPa North 14.5 km/h 27.4 km/h 68 % 0 mm
13:35 17.2 °C 11 °C 1015.1 hPa North 16.1 km/h 29 km/h 67 % 0 mm
13:40 17.1 °C 10.9 °C 1015.1 hPa NNE 16.1 km/h 33.8 km/h 67 % 0 mm
13:45 17.2 °C 10.8 °C 1014.8 hPa North 27.8 km/h 27.8 km/h 66 % 0 mm
13:50 16.9 °C 10.7 °C 1014.8 hPa North 24.1 km/h 24.1 km/h 67 % 0 mm
13:55 16.9 °C 11.2 °C 1014.4 hPa North 18.5 km/h 18.5 km/h 69 % 0 mm
14:00 16.9 °C 11 °C 1014.4 hPa NNE 14.5 km/h 32.2 km/h 68 % 0 mm
14:05 16.9 °C 10.8 °C 1014.4 hPa NNE 24.1 km/h 32.2 km/h 67 % 0 mm
14:10 16.8 °C 10.7 °C 1014.1 hPa North 27.8 km/h 27.8 km/h 67 % 0 mm
14:15 16.8 °C 10.9 °C 1014.1 hPa North 16.1 km/h 32.2 km/h 68 % 0 mm
14:20 16.9 °C 10.9 °C 1014.1 hPa North 12.9 km/h 32.2 km/h 68 % 0 mm
14:25 16.9 °C 10.7 °C 1014.1 hPa NNE 35.4 km/h 35.4 km/h 67 % 0 mm
14:30 16.7 °C 10.8 °C 1014.1 hPa North 22.2 km/h 22.2 km/h 68 % 0 mm
14:35 16.7 °C 10.8 °C 1014.1 hPa North 16.1 km/h 29 km/h 68 % 0 mm
14:40 17 °C 11.1 °C 1013.8 hPa NNE 20.4 km/h 20.4 km/h 68 % 0 mm
14:45 17.1 °C 10.9 °C 1013.8 hPa NNE 14.5 km/h 29 km/h 67 % 0 mm
14:50 17.1 °C 10.7 °C 1013.8 hPa North 31.5 km/h 31.5 km/h 66 % 0 mm
14:55 16.9 °C 10.7 °C 1013.8 hPa North 24.1 km/h 24.1 km/h 67 % 0 mm
15:00 16.9 °C 10.7 °C 1013.8 hPa North 12.9 km/h 29 km/h 67 % 0 mm
15:05 17 °C 10.8 °C 1013.8 hPa NNE 19.3 km/h 29 km/h 67 % 0 mm
15:10 16.9 °C 10.9 °C 1013.8 hPa NNE 11.3 km/h 25.7 km/h 68 % 0 mm
15:15 16.7 °C 10.8 °C 1013.8 hPa NNE 18.5 km/h 18.5 km/h 68 % 0 mm
15:20 16.6 °C 10.6 °C 1013.8 hPa NNE 24.1 km/h 24.1 km/h 68 % 0 mm
15:25 16.4 °C 10.7 °C 1013.8 hPa NNE 16.7 km/h 16.7 km/h 69 % 0 mm
15:30 16.4 °C 10.9 °C 1013.8 hPa NE 22.2 km/h 22.2 km/h 70 % 0 mm
15:35 16.4 °C 10.9 °C 1013.8 hPa NNE 18.5 km/h 18.5 km/h 70 % 0 mm
15:40 16.6 °C 10.9 °C 1013.8 hPa NNE 25.9 km/h 25.9 km/h 69 % 0 mm
15:45 16.8 °C 10.8 °C 1013.8 hPa NNE 24.1 km/h 24.1 km/h 68 % 0 mm
15:50 16.9 °C 10.9 °C 1013.8 hPa NNE 14.8 km/h 14.8 km/h 68 % 0 mm
15:55 16.9 °C 11 °C 1013.8 hPa NNE 16.7 km/h 16.7 km/h 68 % 0 mm
16:00 16.9 °C 11 °C 1013.4 hPa NNE 27.8 km/h 27.8 km/h 68 % 0 mm
16:05 16.9 °C 11.2 °C 1013.4 hPa NNE 13 km/h 13 km/h 69 % 0 mm
16:10 16.8 °C 11.1 °C 1013.4 hPa NNE 24.1 km/h 24.1 km/h 69 % 0 mm
16:15 16.8 °C 10.8 °C 1013.8 hPa NNE 20.4 km/h 20.4 km/h 68 % 0 mm
16:20 16.7 °C 10.8 °C 1013.8 hPa NNE 14.8 km/h 14.8 km/h 68 % 0 mm
16:25 16.7 °C 10.8 °C 1013.4 hPa North 22.2 km/h 22.2 km/h 68 % 0 mm
16:30 16.7 °C 10.7 °C 1013.4 hPa NNE 18.5 km/h 18.5 km/h 68 % 0 mm
16:35 16.6 °C 10.9 °C 1013.4 hPa NNE 12.9 km/h 22.5 km/h 69 % 0 mm
16:40 16.5 °C 10.8 °C 1013.4 hPa NNE 11.3 km/h 24.1 km/h 69 % 0 mm
16:45 16.4 °C 10.9 °C 1013.4 hPa NNE 16.7 km/h 16.7 km/h 70 % 0 mm
16:50 16.3 °C 10.8 °C 1013.4 hPa NNE 11.3 km/h 20.9 km/h 70 % 0 mm
16:55 16.2 °C 10.7 °C 1013.4 hPa NNE 18.5 km/h 18.5 km/h 70 % 0 mm
17:00 16.1 °C 10.8 °C 1013.4 hPa NNE 14.5 km/h 14.5 km/h 71 % 0 mm
17:05 16 °C 10.7 °C 1013.4 hPa NNE 12.9 km/h 19.3 km/h 71 % 0 mm
17:10 15.9 °C 10.7 °C 1013.4 hPa NNE 12.9 km/h 19.3 km/h 71 % 0 mm
17:15 15.9 °C 10.8 °C 1013.1 hPa NNE 11.3 km/h 19.3 km/h 72 % 0 mm
17:20 15.8 °C 10.8 °C 1013.4 hPa NNE 11.3 km/h 20.9 km/h 72 % 0 mm
17:25 15.8 °C 10.7 °C 1013.4 hPa NNE 11.3 km/h 20.9 km/h 72 % 0 mm
17:30 15.7 °C 10.9 °C 1013.4 hPa NNE 18.5 km/h 18.5 km/h 73 % 0 mm
17:35 15.7 °C 10.8 °C 1013.4 hPa NNE 17.7 km/h 17.7 km/h 73 % 0 mm
17:40 15.6 °C 10.8 °C 1013.4 hPa NNE 16.7 km/h 16.7 km/h 73 % 0 mm
17:45 15.6 °C 10.8 °C 1013.4 hPa NNE 14.8 km/h 14.8 km/h 73 % 0 mm
17:50 15.6 °C 11 °C 1013.4 hPa NNE 18.5 km/h 18.5 km/h 74 % 0 mm
17:55 15.6 °C 10.9 °C 1013.4 hPa NNE 5.6 km/h 5.6 km/h 74 % 0 mm
18:00 15.5 °C 10.9 °C 1013.4 hPa NNE 8 km/h 8 km/h 74 % 0 mm
18:05 15.4 °C 10.8 °C 1013.4 hPa NNE 11.1 km/h 11.1 km/h 74 % 0 mm
18:10 15.4 °C 10.8 °C 1013.4 hPa NNE 14.8 km/h 14.8 km/h 74 % 0 mm
18:15 15.4 °C 10.8 °C 1013.4 hPa NNE 13 km/h 13 km/h 74 % 0 mm
18:20 15.3 °C 10.9 °C 1013.4 hPa NNE 9.7 km/h 9.7 km/h 75 % 0 mm
18:25 15.3 °C 11.1 °C 1013.4 hPa NNE 9.7 km/h 9.7 km/h 76 % 0 mm
18:30 15.4 °C 11.2 °C 1013.4 hPa NNE 5.6 km/h 6.8 km/h 76 % 0 mm
18:35 15.4 °C 11.2 °C 1013.4 hPa NNE 18.5 km/h 18.5 km/h 76 % 0 mm
18:40 15.4 °C 11.4 °C 1013.4 hPa NNE 17.7 km/h 17.7 km/h 77 % 0 mm
18:45 15.4 °C 11.4 °C 1013.4 hPa NNE 18.5 km/h 18.5 km/h 77 % 0 mm
18:50 15.2 °C 11.2 °C 1013.1 hPa NNE 14.5 km/h 14.5 km/h 77 % 0 mm
18:55 15.1 °C 11.3 °C 1013.1 hPa NNE 9.3 km/h 9.3 km/h 78 % 0 mm
19:00 15 °C 11.2 °C 1013.1 hPa NNE 14.8 km/h 14.8 km/h 78 % 0 mm
19:05 15 °C 11.2 °C 1013.4 hPa NNE 12.9 km/h 12.9 km/h 78 % 0 mm
19:10 15 °C 11 °C 1013.4 hPa NNE 7.4 km/h 7.4 km/h 77 % 0 mm
19:15 14.9 °C 10.9 °C 1013.1 hPa NNE 5.6 km/h 5.6 km/h 77 % 0 mm
19:20 14.9 °C 10.9 °C 1013.1 hPa NNE 5.6 km/h 5.6 km/h 77 % 0 mm
19:25 15 °C 11 °C 1013.1 hPa NNE 1.6 km/h 11.3 km/h 77 % 0 mm
19:30 15.1 °C 11.1 °C 1013.1 hPa NNE 7.4 km/h 9.2 km/h 77 % 0 mm
19:35 15.2 °C 11.2 °C 1013.1 hPa NNE 5.6 km/h 5.6 km/h 77 % 0 mm
19:40 15.2 °C 11.2 °C 1013.4 hPa NNE 9.3 km/h 9.3 km/h 77 % 0 mm
19:45 15.3 °C 11.4 °C 1013.1 hPa NNE 9.3 km/h 9.3 km/h 78 % 0.51 mm
19:50 15.2 °C 11.7 °C 1012.8 hPa NNE 3.2 km/h 12.9 km/h 80 % 0 mm
19:55 15 °C 11.8 °C 1012.8 hPa NNE 13 km/h 13 km/h 81 % 0.51 mm
20:00 14.9 °C 11.7 °C 1012.8 hPa NNE 8 km/h 14.5 km/h 81 % 0 mm
20:05 14.9 °C 11.7 °C 1012.8 hPa NNE 11.1 km/h 11.1 km/h 81 % 0.51 mm
20:10 14.9 °C 11.5 °C 1012.4 hPa NNE 9.3 km/h 9.3 km/h 80 % 0.51 mm
20:15 15.1 °C 11.6 °C 1012.4 hPa NNE 8 km/h 16.1 km/h 80 % 0 mm
20:20 15.2 °C 11.6 °C 1012.8 hPa NNE 16.7 km/h 16.7 km/h 79 % 0.51 mm
20:25 15.2 °C 11.6 °C 1013.1 hPa North 18.5 km/h 18.5 km/h 79 % 0.76 mm
20:30 15.3 °C 11.9 °C 1013.1 hPa North 12.9 km/h 24.1 km/h 80 % 0.25 mm
20:35 15.1 °C 11.8 °C 1012.8 hPa North 12.9 km/h 27.4 km/h 81 % 0 mm
20:40 14.8 °C 11.9 °C 1013.1 hPa NNE 11.3 km/h 22.5 km/h 83 % 0.25 mm
20:45 14.4 °C 11.9 °C 1012.8 hPa NNE 20.4 km/h 20.4 km/h 85 % 3.81 mm
20:50 14.3 °C 11.9 °C 1012.8 hPa North 16.7 km/h 16.7 km/h 86 % 3.81 mm
20:55 14.3 °C 12.2 °C 1012.8 hPa North 31.5 km/h 31.5 km/h 87 % 3.81 mm
21:00 14.6 °C 11.9 °C 1012.8 hPa North 22.5 km/h 22.5 km/h 84 % 3.81 mm
21:05 14.7 °C 11.9 °C 1012.4 hPa NNE 22.2 km/h 22.2 km/h 83 % 3.81 mm
21:10 14.7 °C 11.8 °C 1012.4 hPa NNE 11.1 km/h 11.4 km/h 83 % 3.81 mm
21:15 14.5 °C 11.8 °C 1012.1 hPa NNE 18.5 km/h 18.5 km/h 84 % 3.81 mm
21:20 14.4 °C 11.8 °C 1012.1 hPa North 20.4 km/h 20.4 km/h 84 % 3.81 mm
21:25 14.4 °C 11.8 °C 1012.1 hPa NNE 25.9 km/h 25.9 km/h 84 % 3.81 mm
21:30 14.5 °C 11.7 °C 1012.1 hPa NNE 19.3 km/h 32.2 km/h 83 % 0 mm
21:35 14.7 °C 11.6 °C 1012.1 hPa North 14.5 km/h 32.2 km/h 82 % 0 mm
21:40 14.9 °C 11.7 °C 1012.4 hPa North 20.9 km/h 32.2 km/h 81 % 0 mm
21:45 15 °C 11.6 °C 1012.1 hPa North 27.8 km/h 27.8 km/h 80 % 0 mm
21:50 15 °C 11.6 °C 1012.1 hPa North 22.2 km/h 22.2 km/h 80 % 0 mm
21:55 15 °C 11.6 °C 1012.1 hPa North 22.2 km/h 22.2 km/h 80 % 0 mm
22:00 14.9 °C 11.4 °C 1012.1 hPa North 16.1 km/h 16.1 km/h 80 % 0 mm
22:05 14.8 °C 11.6 °C 1012.1 hPa North 16.1 km/h 24.1 km/h 81 % 0 mm
22:10 14.8 °C 11.6 °C 1012.1 hPa North 14.5 km/h 22.5 km/h 81 % 0 mm
22:15 14.7 °C 11.5 °C 1012.1 hPa NNE 24.1 km/h 24.1 km/h 81 % 0 mm
22:20 14.7 °C 11.7 °C 1012.1 hPa North 9.7 km/h 24.1 km/h 82 % 0 mm
22:25 14.6 °C 11.6 °C 1011.7 hPa North 12.9 km/h 22.5 km/h 82 % 0 mm
22:30 14.6 °C 11.5 °C 1011.7 hPa NNE 14.5 km/h 20.9 km/h 82 % 0 mm
22:35 14.6 °C 11.5 °C 1011.7 hPa NNE 11.3 km/h 25.7 km/h 82 % 0 mm
22:40 14.6 °C 11.5 °C 1011.7 hPa NNE 16.7 km/h 16.7 km/h 82 % 0 mm
22:45 14.7 °C 11.6 °C 1012.1 hPa North 12.9 km/h 24.1 km/h 82 % 0 mm
22:50 14.7 °C 11.6 °C 1012.1 hPa North 12.9 km/h 22.5 km/h 82 % 0 mm
22:55 14.6 °C 11.8 °C 1012.1 hPa North 14.5 km/h 24.1 km/h 83 % 0 mm
23:00 14.6 °C 11.7 °C 1012.1 hPa North 12.9 km/h 24.1 km/h 83 % 0 mm
23:05 14.5 °C 11.7 °C 1012.1 hPa North 11.3 km/h 20.9 km/h 83 % 0 mm
23:10 14.4 °C 11.7 °C 1012.1 hPa North 9.7 km/h 20.9 km/h 84 % 0.51 mm
23:15 14.2 °C 11.7 °C 1012.1 hPa NNW 8 km/h 12.9 km/h 85 % 0 mm
23:20 14 °C 11.7 °C 1012.1 hPa North 11.1 km/h 11.1 km/h 86 % 1.27 mm
23:25 13.8 °C 11.7 °C 1012.1 hPa North 9.3 km/h 9.3 km/h 87 % 1.52 mm
23:30 13.7 °C 11.7 °C 1012.4 hPa NNW 13 km/h 13 km/h 88 % 1.78 mm
23:35 13.6 °C 11.8 °C 1012.4 hPa North 9.7 km/h 9.7 km/h 89 % 2.03 mm
23:40 13.6 °C 11.8 °C 1012.4 hPa North 13 km/h 13 km/h 89 % 2.29 mm
23:45 13.4 °C 11.8 °C 1012.4 hPa NNW 11.1 km/h 11.1 km/h 90 % 3.3 mm
23:50 13.4 °C 11.8 °C 1012.1 hPa North 14.8 km/h 14.8 km/h 90 % 3.05 mm
23:55 13.3 °C 11.7 °C 1012.1 hPa NNE 18.5 km/h 18.5 km/h 90 % 3.3 mm
Ararat Weather
Compliments of Weather Underground - 2.25 mb
Click here to send mail.


ABOUT

Live weather data from Ararat, Victoria, Australia, 3377
Data uploaded from Cumulus every 5 minutes to Weather Underground.
This site then downloads the raw data for formatting and display.
Metric and imperial data can be displayed. Graphs and historical data available.
Includes Sun and Moon times and rain image live from BOM.

Check out Ararat Weather on Facebook, Twitter and Google +

Help support ongoing costs by checking out the ads





Follow @AraratWeather